sensor_id;sensor_type;location;lat;lon;timestamp;temperature;humidity
28725;DHT22;43472;48.980;9.646;2023-07-30T00:00:21;18.20;99.90
28725;DHT22;43472;48.980;9.646;2023-07-30T00:05:23;18.80;99.90
28725;DHT22;43472;48.980;9.646;2023-07-30T00:10:25;18.70;99.90
28725;DHT22;43472;48.980;9.646;2023-07-30T00:15:27;18.30;99.90
28725;DHT22;43472;48.980;9.646;2023-07-30T00:20:29;18.20;99.90
28725;DHT22;43472;48.980;9.646;2023-07-30T00:25:34;18.20;99.90
28725;DHT22;43472;48.980;9.646;2023-07-30T00:30:36;18.10;99.90
28725;DHT22;43472;48.980;9.646;2023-07-30T00:35:38;18.20;99.90
28725;DHT22;43472;48.980;9.646;2023-07-30T00:40:40;18.20;99.90
28725;DHT22;43472;48.980;9.646;2023-07-30T00:45:44;18.20;99.90
28725;DHT22;43472;48.980;9.646;2023-07-30T00:50:46;18.10;99.90
28725;DHT22;43472;48.980;9.646;2023-07-30T00:55:48;18.00;99.90
28725;DHT22;43472;48.980;9.646;2023-07-30T01:00:54;17.90;99.90
28725;DHT22;43472;48.980;9.646;2023-07-30T01:05:56;18.00;99.90
28725;DHT22;43472;48.980;9.646;2023-07-30T01:10:59;17.90;99.90
28725;DHT22;43472;48.980;9.646;2023-07-30T01:16:01;17.70;99.90
28725;DHT22;43472;48.980;9.646;2023-07-30T01:21:07;17.80;99.90
28725;DHT22;43472;48.980;9.646;2023-07-30T01:26:11;17.70;99.90
28725;DHT22;43472;48.980;9.646;2023-07-30T01:31:15;17.60;99.90
28725;DHT22;43472;48.980;9.646;2023-07-30T01:36:19;17.50;99.90
28725;DHT22;43472;48.980;9.646;2023-07-30T01:41:21;17.40;99.90
28725;DHT22;43472;48.980;9.646;2023-07-30T01:46:23;17.30;99.90
28725;DHT22;43472;48.980;9.646;2023-07-30T01:51:25;17.20;99.90
28725;DHT22;43472;48.980;9.646;2023-07-30T01:56:27;17.20;99.90
28725;DHT22;43472;48.980;9.646;2023-07-30T02:01:29;17.20;99.90
28725;DHT22;43472;48.980;9.646;2023-07-30T02:06:32;17.20;99.90
28725;DHT22;43472;48.980;9.646;2023-07-30T02:11:33;17.10;99.90
28725;DHT22;43472;48.980;9.646;2023-07-30T02:16:37;17.10;99.90
28725;DHT22;43472;48.980;9.646;2023-07-30T02:21:40;17.00;99.90
28725;DHT22;43472;48.980;9.646;2023-07-30T02:26:44;17.20;99.90
28725;DHT22;43472;48.980;9.646;2023-07-30T02:31:47;17.10;99.90
28725;DHT22;43472;48.980;9.646;2023-07-30T02:36:49;17.10;99.90
28725;DHT22;43472;48.980;9.646;2023-07-30T02:41:51;17.10;99.90
28725;DHT22;43472;48.980;9.646;2023-07-30T02:46:53;17.10;99.90
28725;DHT22;43472;48.980;9.646;2023-07-30T02:51:56;17.20;99.90
28725;DHT22;43472;48.980;9.646;2023-07-30T02:56:57;17.10;99.90
28725;DHT22;43472;48.980;9.646;2023-07-30T03:02:00;17.10;99.90
28725;DHT22;43472;48.980;9.646;2023-07-30T03:07:02;17.10;99.90
28725;DHT22;43472;48.980;9.646;2023-07-30T03:12:05;17.00;99.90
28725;DHT22;43472;48.980;9.646;2023-07-30T03:17:07;17.10;99.90
28725;DHT22;43472;48.980;9.646;2023-07-30T03:22:10;17.20;99.90
28725;DHT22;43472;48.980;9.646;2023-07-30T03:27:12;17.10;99.90
28725;DHT22;43472;48.980;9.646;2023-07-30T03:32:14;17.00;99.90
28725;DHT22;43472;48.980;9.646;2023-07-30T03:37:16;17.00;99.90
28725;DHT22;43472;48.980;9.646;2023-07-30T03:42:18;17.10;99.90
28725;DHT22;43472;48.980;9.646;2023-07-30T03:47:20;17.10;99.90
28725;DHT22;43472;48.980;9.646;2023-07-30T03:52:22;17.10;99.90
28725;DHT22;43472;48.980;9.646;2023-07-30T03:57:25;17.10;99.90
28725;DHT22;43472;48.980;9.646;2023-07-30T04:02:27;17.00;99.90
28725;DHT22;43472;48.980;9.646;2023-07-30T04:07:29;17.00;99.90
28725;DHT22;43472;48.980;9.646;2023-07-30T04:12:30;17.10;99.90
28725;DHT22;43472;48.980;9.646;2023-07-30T04:17:35;17.10;99.90
28725;DHT22;43472;48.980;9.646;2023-07-30T04:22:38;17.20;99.90
28725;DHT22;43472;48.980;9.646;2023-07-30T04:27:40;17.10;99.90
28725;DHT22;43472;48.980;9.646;2023-07-30T04:32:42;17.20;99.90
28725;DHT22;43472;48.980;9.646;2023-07-30T04:37:44;17.20;99.90
28725;DHT22;43472;48.980;9.646;2023-07-30T04:42:46;17.20;99.90
28725;DHT22;43472;48.980;9.646;2023-07-30T04:47:48;17.30;99.90
28725;DHT22;43472;48.980;9.646;2023-07-30T04:52:50;17.50;99.90
28725;DHT22;43472;48.980;9.646;2023-07-30T04:57:51;17.50;99.90
28725;DHT22;43472;48.980;9.646;2023-07-30T05:02:54;17.40;99.90
28725;DHT22;43472;48.980;9.646;2023-07-30T05:07:56;17.60;99.90
28725;DHT22;43472;48.980;9.646;2023-07-30T05:12:58;17.70;99.90
28725;DHT22;43472;48.980;9.646;2023-07-30T05:18:00;17.70;99.90
28725;DHT22;43472;48.980;9.646;2023-07-30T05:23:02;17.90;99.90
28725;DHT22;43472;48.980;9.646;2023-07-30T05:28:04;17.90;99.90
28725;DHT22;43472;48.980;9.646;2023-07-30T05:33:06;18.10;99.90
28725;DHT22;43472;48.980;9.646;2023-07-30T05:38:08;18.10;99.90
28725;DHT22;43472;48.980;9.646;2023-07-30T05:43:10;18.30;99.90
28725;DHT22;43472;48.980;9.646;2023-07-30T05:48:12;18.20;99.90
28725;DHT22;43472;48.980;9.646;2023-07-30T05:53:14;18.10;99.90
28725;DHT22;43472;48.980;9.646;2023-07-30T05:58:17;18.00;99.90
28725;DHT22;43472;48.980;9.646;2023-07-30T06:03:19;17.90;99.90
28725;DHT22;43472;48.980;9.646;2023-07-30T06:08:21;18.00;99.90
28725;DHT22;43472;48.980;9.646;2023-07-30T06:13:23;18.00;99.90
28725;DHT22;43472;48.980;9.646;2023-07-30T06:18:25;18.10;99.90
28725;DHT22;43472;48.980;9.646;2023-07-30T06:23:27;18.10;99.90
28725;DHT22;43472;48.980;9.646;2023-07-30T06:28:29;18.10;99.90
28725;DHT22;43472;48.980;9.646;2023-07-30T06:33:32;18.10;99.90
28725;DHT22;43472;48.980;9.646;2023-07-30T06:38:34;18.10;99.90
28725;DHT22;43472;48.980;9.646;2023-07-30T06:43:39;18.10;99.90
28725;DHT22;43472;48.980;9.646;2023-07-30T06:48:41;18.20;99.90
28725;DHT22;43472;48.980;9.646;2023-07-30T06:53:43;18.10;99.90
28725;DHT22;43472;48.980;9.646;2023-07-30T06:58:46;18.10;99.90
28725;DHT22;43472;48.980;9.646;2023-07-30T07:03:50;18.10;99.90
28725;DHT22;43472;48.980;9.646;2023-07-30T07:08:52;18.00;99.90
28725;DHT22;43472;48.980;9.646;2023-07-30T07:13:54;18.10;99.90
28725;DHT22;43472;48.980;9.646;2023-07-30T07:18:58;18.30;99.90
28725;DHT22;43472;48.980;9.646;2023-07-30T07:24:00;18.30;99.90
28725;DHT22;43472;48.980;9.646;2023-07-30T07:29:02;18.80;99.90
28725;DHT22;43472;48.980;9.646;2023-07-30T07:34:04;19.30;99.90
28725;DHT22;43472;48.980;9.646;2023-07-30T07:39:06;19.40;99.90
28725;DHT22;43472;48.980;9.646;2023-07-30T07:44:10;19.20;99.90
28725;DHT22;43472;48.980;9.646;2023-07-30T07:49:12;19.10;99.90
28725;DHT22;43472;48.980;9.646;2023-07-30T07:54:16;19.10;99.90
28725;DHT22;43472;48.980;9.646;2023-07-30T07:59:17;18.60;99.90
28725;DHT22;43472;48.980;9.646;2023-07-30T08:04:19;18.60;99.90
28725;DHT22;43472;48.980;9.646;2023-07-30T08:09:23;18.60;99.90
28725;DHT22;43472;48.980;9.646;2023-07-30T08:14:25;18.60;99.90
28725;DHT22;43472;48.980;9.646;2023-07-30T08:19:27;18.70;99.90
28725;DHT22;43472;48.980;9.646;2023-07-30T08:34:38;18.40;99.90
28725;DHT22;43472;48.980;9.646;2023-07-30T08:39:41;18.20;99.90
28725;DHT22;43472;48.980;9.646;2023-07-30T08:44:47;18.30;99.90
28725;DHT22;43472;48.980;9.646;2023-07-30T08:49:50;18.70;99.90
28725;DHT22;43472;48.980;9.646;2023-07-30T08:54:53;18.60;99.90
28725;DHT22;43472;48.980;9.646;2023-07-30T09:00:08;18.60;99.90
28725;DHT22;43472;48.980;9.646;2023-07-30T09:05:15;19.00;99.90
28725;DHT22;43472;48.980;9.646;2023-07-30T09:10:17;19.30;99.90
28725;DHT22;43472;48.980;9.646;2023-07-30T09:15:31;19.20;99.90
28725;DHT22;43472;48.980;9.646;2023-07-30T09:20:39;19.30;99.90
28725;DHT22;43472;48.980;9.646;2023-07-30T09:25:42;19.10;99.90
28725;DHT22;43472;48.980;9.646;2023-07-30T09:30:49;19.30;99.90
28725;DHT22;43472;48.980;9.646;2023-07-30T09:35:52;19.60;99.90
28725;DHT22;43472;48.980;9.646;2023-07-30T09:41:02;19.70;99.90
28725;DHT22;43472;48.980;9.646;2023-07-30T09:46:07;19.40;99.90
28725;DHT22;43472;48.980;9.646;2023-07-30T09:51:09;19.50;99.90
28725;DHT22;43472;48.980;9.646;2023-07-30T09:56:12;19.40;99.90
28725;DHT22;43472;48.980;9.646;2023-07-30T10:01:14;19.60;99.90
28725;DHT22;43472;48.980;9.646;2023-07-30T10:06:17;19.60;99.90
28725;DHT22;43472;48.980;9.646;2023-07-30T10:11:19;19.80;99.90
28725;DHT22;43472;48.980;9.646;2023-07-30T10:16:26;19.70;99.90
28725;DHT22;43472;48.980;9.646;2023-07-30T10:21:32;20.00;99.90
28725;DHT22;43472;48.980;9.646;2023-07-30T10:26:35;20.00;99.90
28725;DHT22;43472;48.980;9.646;2023-07-30T10:31:39;20.40;99.90
28725;DHT22;43472;48.980;9.646;2023-07-30T10:36:45;20.30;99.90
28725;DHT22;43472;48.980;9.646;2023-07-30T10:41:56;20.40;99.90
28725;DHT22;43472;48.980;9.646;2023-07-30T10:47:02;20.30;99.90
28725;DHT22;43472;48.980;9.646;2023-07-30T10:52:05;20.80;99.90
28725;DHT22;43472;48.980;9.646;2023-07-30T10:57:07;20.60;99.90
28725;DHT22;43472;48.980;9.646;2023-07-30T11:02:09;20.80;99.90
28725;DHT22;43472;48.980;9.646;2023-07-30T11:07:19;21.20;99.90
28725;DHT22;43472;48.980;9.646;2023-07-30T11:12:22;20.80;99.90
28725;DHT22;43472;48.980;9.646;2023-07-30T11:17:24;21.80;99.90
28725;DHT22;43472;48.980;9.646;2023-07-30T11:22:32;20.10;99.90
28725;DHT22;43472;48.980;9.646;2023-07-30T11:27:59;22.50;99.90
28725;DHT22;43472;48.980;9.646;2023-07-30T11:33:02;22.60;99.90
28725;DHT22;43472;48.980;9.646;2023-07-30T11:38:04;23.00;99.90
28725;DHT22;43472;48.980;9.646;2023-07-30T11:43:06;23.40;99.90
28725;DHT22;43472;48.980;9.646;2023-07-30T11:48:10;22.50;99.90
28725;DHT22;43472;48.980;9.646;2023-07-30T11:53:13;22.20;99.90
28725;DHT22;43472;48.980;9.646;2023-07-30T11:58:17;21.70;99.90
28725;DHT22;43472;48.980;9.646;2023-07-30T12:03:19;20.90;99.90
28725;DHT22;43472;48.980;9.646;2023-07-30T12:08:25;20.70;99.90
28725;DHT22;43472;48.980;9.646;2023-07-30T12:13:28;20.70;99.90
28725;DHT22;43472;48.980;9.646;2023-07-30T12:18:30;20.80;99.90
28725;DHT22;43472;48.980;9.646;2023-07-30T12:23:34;21.10;99.90
28725;DHT22;43472;48.980;9.646;2023-07-30T12:28:36;22.00;99.90
28725;DHT22;43472;48.980;9.646;2023-07-30T12:33:38;21.90;99.90
28725;DHT22;43472;48.980;9.646;2023-07-30T12:38:40;22.30;99.90
28725;DHT22;43472;48.980;9.646;2023-07-30T12:43:45;23.00;99.90
28725;DHT22;43472;48.980;9.646;2023-07-30T12:48:47;23.00;99.90
28725;DHT22;43472;48.980;9.646;2023-07-30T12:53:50;21.70;99.90
28725;DHT22;43472;48.980;9.646;2023-07-30T12:58:52;22.30;99.90
28725;DHT22;43472;48.980;9.646;2023-07-30T13:03:57;22.60;99.90
28725;DHT22;43472;48.980;9.646;2023-07-30T13:09:03;23.30;99.90
28725;DHT22;43472;48.980;9.646;2023-07-30T13:14:05;23.60;99.90
28725;DHT22;43472;48.980;9.646;2023-07-30T13:19:07;23.40;99.90
28725;DHT22;43472;48.980;9.646;2023-07-30T13:24:09;23.10;99.90
28725;DHT22;43472;48.980;9.646;2023-07-30T13:29:11;23.40;99.90
28725;DHT22;43472;48.980;9.646;2023-07-30T13:34:13;23.40;99.90
28725;DHT22;43472;48.980;9.646;2023-07-30T13:39:15;23.40;99.90
28725;DHT22;43472;48.980;9.646;2023-07-30T13:44:17;23.80;99.90
28725;DHT22;43472;48.980;9.646;2023-07-30T13:49:18;24.50;99.90
28725;DHT22;43472;48.980;9.646;2023-07-30T13:54:21;24.10;99.90
28725;DHT22;43472;48.980;9.646;2023-07-30T13:59:22;23.80;99.90
28725;DHT22;43472;48.980;9.646;2023-07-30T14:04:25;23.20;99.90
28725;DHT22;43472;48.980;9.646;2023-07-30T14:09:27;23.10;99.90
28725;DHT22;43472;48.980;9.646;2023-07-30T14:14:35;23.20;99.90
28725;DHT22;43472;48.980;9.646;2023-07-30T14:19:37;23.00;99.90
28725;DHT22;43472;48.980;9.646;2023-07-30T14:24:39;23.40;99.90
28725;DHT22;43472;48.980;9.646;2023-07-30T14:29:44;22.90;99.90
28725;DHT22;43472;48.980;9.646;2023-07-30T14:34:47;22.80;99.90
28725;DHT22;43472;48.980;9.646;2023-07-30T14:39:49;22.10;99.90
28725;DHT22;43472;48.980;9.646;2023-07-30T14:44:51;23.10;99.90
28725;DHT22;43472;48.980;9.646;2023-07-30T14:49:53;23.60;99.90
28725;DHT22;43472;48.980;9.646;2023-07-30T14:54:55;23.80;99.90
28725;DHT22;43472;48.980;9.646;2023-07-30T14:59:57;23.50;99.90
28725;DHT22;43472;48.980;9.646;2023-07-30T15:05:01;23.60;99.90
28725;DHT22;43472;48.980;9.646;2023-07-30T15:10:05;23.80;99.90
28725;DHT22;43472;48.980;9.646;2023-07-30T15:15:07;23.80;99.90
28725;DHT22;43472;48.980;9.646;2023-07-30T15:20:10;23.40;99.90
28725;DHT22;43472;48.980;9.646;2023-07-30T15:25:12;23.30;99.90
28725;DHT22;43472;48.980;9.646;2023-07-30T15:30:13;22.90;99.90
28725;DHT22;43472;48.980;9.646;2023-07-30T15:35:15;22.90;99.90
28725;DHT22;43472;48.980;9.646;2023-07-30T15:40:17;22.80;99.90
28725;DHT22;43472;48.980;9.646;2023-07-30T15:45:19;23.00;99.90
28725;DHT22;43472;48.980;9.646;2023-07-30T15:50:21;23.00;99.90
28725;DHT22;43472;48.980;9.646;2023-07-30T15:55:25;23.20;99.90
28725;DHT22;43472;48.980;9.646;2023-07-30T16:00:27;23.00;99.90
28725;DHT22;43472;48.980;9.646;2023-07-30T16:05:29;23.40;99.90
28725;DHT22;43472;48.980;9.646;2023-07-30T16:10:31;23.40;99.90
28725;DHT22;43472;48.980;9.646;2023-07-30T16:15:34;22.80;99.90
28725;DHT22;43472;48.980;9.646;2023-07-30T16:20:36;22.70;99.90
28725;DHT22;43472;48.980;9.646;2023-07-30T16:25:39;22.50;99.90
28725;DHT22;43472;48.980;9.646;2023-07-30T16:30:41;22.50;99.90
28725;DHT22;43472;48.980;9.646;2023-07-30T16:35:43;22.30;99.90
28725;DHT22;43472;48.980;9.646;2023-07-30T16:40:45;22.30;99.90
28725;DHT22;43472;48.980;9.646;2023-07-30T16:45:48;22.00;99.90
28725;DHT22;43472;48.980;9.646;2023-07-30T16:50:50;21.70;99.90
28725;DHT22;43472;48.980;9.646;2023-07-30T16:55:55;21.20;99.90
28725;DHT22;43472;48.980;9.646;2023-07-30T17:00:59;21.20;99.90
28725;DHT22;43472;48.980;9.646;2023-07-30T17:06:04;21.10;99.90
28725;DHT22;43472;48.980;9.646;2023-07-30T17:11:06;21.00;99.90
28725;DHT22;43472;48.980;9.646;2023-07-30T17:16:09;20.70;99.90
28725;DHT22;43472;48.980;9.646;2023-07-30T17:21:12;20.50;99.90
28725;DHT22;43472;48.980;9.646;2023-07-30T17:26:15;20.50;99.90
28725;DHT22;43472;48.980;9.646;2023-07-30T17:31:17;20.20;99.90
28725;DHT22;43472;48.980;9.646;2023-07-30T17:36:20;20.10;99.90
28725;DHT22;43472;48.980;9.646;2023-07-30T17:41:22;20.00;99.90
28725;DHT22;43472;48.980;9.646;2023-07-30T17:46:24;20.00;99.90
28725;DHT22;43472;48.980;9.646;2023-07-30T17:51:26;20.00;99.90
28725;DHT22;43472;48.980;9.646;2023-07-30T17:56:28;20.10;99.90
28725;DHT22;43472;48.980;9.646;2023-07-30T18:01:37;19.90;99.90
28725;DHT22;43472;48.980;9.646;2023-07-30T18:06:39;19.90;99.90
28725;DHT22;43472;48.980;9.646;2023-07-30T18:11:41;19.70;99.90
28725;DHT22;43472;48.980;9.646;2023-07-30T18:16:44;19.70;99.90
28725;DHT22;43472;48.980;9.646;2023-07-30T18:21:45;19.50;99.90
28725;DHT22;43472;48.980;9.646;2023-07-30T18:26:47;19.50;99.90
28725;DHT22;43472;48.980;9.646;2023-07-30T18:31:50;19.20;99.90
28725;DHT22;43472;48.980;9.646;2023-07-30T18:36:53;19.10;99.90
28725;DHT22;43472;48.980;9.646;2023-07-30T18:41:55;19.10;99.90
28725;DHT22;43472;48.980;9.646;2023-07-30T18:46:57;19.00;99.90
28725;DHT22;43472;48.980;9.646;2023-07-30T18:52:03;18.70;99.90
28725;DHT22;43472;48.980;9.646;2023-07-30T18:57:05;18.70;99.90
28725;DHT22;43472;48.980;9.646;2023-07-30T19:02:08;18.70;99.90
28725;DHT22;43472;48.980;9.646;2023-07-30T19:07:10;18.60;99.90
28725;DHT22;43472;48.980;9.646;2023-07-30T19:12:13;18.60;99.90
28725;DHT22;43472;48.980;9.646;2023-07-30T19:17:16;18.40;99.90
28725;DHT22;43472;48.980;9.646;2023-07-30T19:22:23;18.20;99.90
28725;DHT22;43472;48.980;9.646;2023-07-30T19:27:27;18.10;99.90
28725;DHT22;43472;48.980;9.646;2023-07-30T19:32:30;18.20;99.90
28725;DHT22;43472;48.980;9.646;2023-07-30T19:37:33;18.20;99.90
28725;DHT22;43472;48.980;9.646;2023-07-30T19:42:36;17.80;99.90
28725;DHT22;43472;48.980;9.646;2023-07-30T19:47:38;17.70;99.90
28725;DHT22;43472;48.980;9.646;2023-07-30T19:52:42;17.60;99.90
28725;DHT22;43472;48.980;9.646;2023-07-30T19:57:44;17.40;99.90
28725;DHT22;43472;48.980;9.646;2023-07-30T20:02:46;17.40;99.90
28725;DHT22;43472;48.980;9.646;2023-07-30T20:07:48;17.00;99.90
28725;DHT22;43472;48.980;9.646;2023-07-30T20:12:50;17.10;99.90
28725;DHT22;43472;48.980;9.646;2023-07-30T20:17:52;17.20;99.90
28725;DHT22;43472;48.980;9.646;2023-07-30T20:22:58;16.90;99.90
28725;DHT22;43472;48.980;9.646;2023-07-30T20:28:01;16.70;99.90
28725;DHT22;43472;48.980;9.646;2023-07-30T20:33:04;16.80;99.90
28725;DHT22;43472;48.980;9.646;2023-07-30T20:38:07;16.70;99.90
28725;DHT22;43472;48.980;9.646;2023-07-30T20:43:09;16.70;99.90
28725;DHT22;43472;48.980;9.646;2023-07-30T20:48:11;16.50;99.90
28725;DHT22;43472;48.980;9.646;2023-07-30T20:53:13;16.40;99.90
28725;DHT22;43472;48.980;9.646;2023-07-30T20:58:16;16.40;99.90
28725;DHT22;43472;48.980;9.646;2023-07-30T21:03:18;16.30;99.90
28725;DHT22;43472;48.980;9.646;2023-07-30T21:08:20;16.20;99.90
28725;DHT22;43472;48.980;9.646;2023-07-30T21:13:24;16.00;99.90
28725;DHT22;43472;48.980;9.646;2023-07-30T21:18:25;16.00;99.90
28725;DHT22;43472;48.980;9.646;2023-07-30T21:23:27;16.00;99.90
28725;DHT22;43472;48.980;9.646;2023-07-30T21:28:31;16.10;99.90
28725;DHT22;43472;48.980;9.646;2023-07-30T21:33:34;15.90;99.90
28725;DHT22;43472;48.980;9.646;2023-07-30T21:38:36;16.00;99.90
28725;DHT22;43472;48.980;9.646;2023-07-30T21:43:38;16.00;99.90
28725;DHT22;43472;48.980;9.646;2023-07-30T21:48:42;15.70;99.90
28725;DHT22;43472;48.980;9.646;2023-07-30T21:53:44;15.70;99.90
28725;DHT22;43472;48.980;9.646;2023-07-30T21:58:46;15.50;99.90
28725;DHT22;43472;48.980;9.646;2023-07-30T22:03:48;15.30;99.90
28725;DHT22;43472;48.980;9.646;2023-07-30T22:08:50;15.20;99.90
28725;DHT22;43472;48.980;9.646;2023-07-30T22:13:52;15.10;99.90
28725;DHT22;43472;48.980;9.646;2023-07-30T22:18:54;16.30;99.90
28725;DHT22;43472;48.980;9.646;2023-07-30T22:23:56;15.00;99.90
28725;DHT22;43472;48.980;9.646;2023-07-30T22:28:58;14.80;99.90
28725;DHT22;43472;48.980;9.646;2023-07-30T22:34:01;14.80;99.90
28725;DHT22;43472;48.980;9.646;2023-07-30T22:39:03;14.90;99.90
28725;DHT22;43472;48.980;9.646;2023-07-30T22:44:05;14.70;99.90
28725;DHT22;43472;48.980;9.646;2023-07-30T22:49:07;14.70;99.90
28725;DHT22;43472;48.980;9.646;2023-07-30T22:54:09;14.90;99.90
28725;DHT22;43472;48.980;9.646;2023-07-30T22:59:11;14.80;99.90
28725;DHT22;43472;48.980;9.646;2023-07-30T23:04:14;14.70;99.90
28725;DHT22;43472;48.980;9.646;2023-07-30T23:09:16;14.70;99.90
28725;DHT22;43472;48.980;9.646;2023-07-30T23:14:17;14.60;99.90
28725;DHT22;43472;48.980;9.646;2023-07-30T23:19:19;14.70;99.90
28725;DHT22;43472;48.980;9.646;2023-07-30T23:24:22;14.80;99.90
28725;DHT22;43472;48.980;9.646;2023-07-30T23:29:23;14.80;99.90
28725;DHT22;43472;48.980;9.646;2023-07-30T23:34:25;14.90;99.90
28725;DHT22;43472;48.980;9.646;2023-07-30T23:39:28;14.80;99.90
28725;DHT22;43472;48.980;9.646;2023-07-30T23:44:31;14.80;99.90
28725;DHT22;43472;48.980;9.646;2023-07-30T23:49:32;14.80;99.90
28725;DHT22;43472;48.980;9.646;2023-07-30T23:54:35;14.70;99.90
28725;DHT22;43472;48.980;9.646;2023-07-30T23:59:37;14.60;99.90
